Mesa.AZweather.com - Mesa, AZ
   Red Mountain Frwy and University Dr., El 1518 ft.
       --- Thursday  July 16, 2020 ---
 
 High Temperature ..  112F at 14:18
 Low Temperature ...  86F at 05:42
 
 High Humidity .....  29% at 03:17
 Low Humidity ......  11% at 18:38
 
 High Barometer ....  29.92 at 09:21
 Low Barometer .....  29.77 at 16:57
 
 High Dew Point ....  54F at 07:34
 Low Dew Point .....  42F at 18:38
 
 Rainfall Total ....  0.00 in.
 
 High Wind Speed ...  ---
                     
 
 Time   Temp  Humi  Rain     Baro  DewPt  Wind
00:00,  90F, 25%, 0.00 in, 29.83, 49F, ---
00:30,  91F, 25%, 0.00 in, 29.83, 51F, ---
01:00,  91F, 25%, 0.00 in, 29.84, 51F, ---
01:30,  91F, 26%, 0.00 in, 29.83, 52F, ---
02:00,  91F, 26%, 0.00 in, 29.83, 52F, ---
02:30,  90F, 26%, 0.00 in, 29.84, 50F, ---
03:00,  88F, 27%, 0.00 in, 29.83, 50F, ---
03:30,  87F, 29%, 0.00 in, 29.84, 52F, ---
04:00,  88F, 28%, 0.00 in, 29.83, 51F, ---
04:30,  89F, 28%, 0.00 in, 29.84, 52F, ---
05:00,  89F, 28%, 0.00 in, 29.85, 52F, ---
05:30,  87F, 28%, 0.00 in, 29.85, 51F, ---
06:00,  87F, 29%, 0.00 in, 29.86, 52F, ---
06:30,  87F, 29%, 0.00 in, 29.87, 52F, ---
07:00,  89F, 29%, 0.00 in, 29.88, 53F, ---
07:30,  90F, 28%, 0.00 in, 29.90, 52F, ---
08:00,  93F, 25%, 0.00 in, 29.90, 52F, ---
08:30,  97F, 23%, 0.00 in, 29.90, 53F, ---
09:00,  99F, 22%, 0.00 in, 29.91, 53F, ---
09:30,  100F, 21%, 0.00 in, 29.91, 53F, ---
10:00,  102F, 19%, 0.00 in, 29.92, 52F, ---
10:30,  103F, 18%, 0.00 in, 29.92, 51F, ---
11:00,  105F, 17%, 0.00 in, 29.91, 52F, ---
11:30,  106F, 14%, 0.00 in, 29.90, 47F, ---
12:00,  107F, 13%, 0.00 in, 29.89, 46F, ---
12:30,  108F, 13%, 0.00 in, 29.88, 46F, ---
13:00,  110F, 12%, 0.00 in, 29.88, 45F, ---
13:30,  108F, 12%, 0.00 in, 29.85, 44F, ---
14:00,  110F, 13%, 0.00 in, 29.84, 48F, ---
14:30,  111F, 12%, 0.00 in, 29.83, 47F, ---
15:00,  110F, 12%, 0.00 in, 29.82, 45F, ---
15:30,  109F, 12%, 0.00 in, 29.81, 45F, ---
16:00,  109F, 12%, 0.00 in, 29.79, 45F, ---
16:30,  109F, 12%, 0.00 in, 29.78, 45F, ---
17:00,  110F, 12%, 0.00 in, 29.78, 45F, ---
17:30,  109F, 12%, 0.00 in, 29.78, 45F, ---
18:00,  109F, 12%, 0.00 in, 29.78, 45F, ---
18:30,  108F, 12%, 0.00 in, 29.78, 44F, ---
19:00,  107F, 13%, 0.00 in, 29.79, 46F, ---
19:30,  103F, 14%, 0.00 in, 29.80, 44F, ---
20:00,  101F, 15%, 0.00 in, 29.80, 44F, ---
20:30,  100F, 17%, 0.00 in, 29.82, 48F, ---
21:00,  98F, 20%, 0.00 in, 29.83, 51F, ---
21:30,  97F, 21%, 0.00 in, 29.85, 50F, ---
22:00,  96F, 23%, 0.00 in, 29.87, 53F, ---
22:30,  95F, 22%, 0.00 in, 29.89, 50F, ---
23:00,  95F, 23%, 0.00 in, 29.89, 51F, ---
23:30,  94F, 23%, 0.00 in, 29.90, 50F, ---
23:59,  93F, 24%, 0.00 in, 29.90, 51F, ---